1982 DANIEL (1982188N09262)


On this page: IBTrACS data - Map and Plots - Positions - Intensities - Original source data

Summary

Start Jul 7
End Jul 22
Basin EP
LMI 103 kt
Sources hurdat_epa
jtwc_ep
cphc
td9636
atcf
In WMO? Yes
Previous storm 1983 HSK0182 (SI)
Previous in basin 1982 MISSING (EP)
Concurrent storms 1982 DANIEL (EP)
1982 WINONA (WP)
1982 EMILIA (EP)
1982 MISSING (EP)
1982 MISSING (EP)
1982 FABIO (EP)
1982 BESS (WP)
1982 ANDY (WP)
Next in basin 1982 EMILIA (EP)
Next storm 1982 WINONA (WP)

top of page IBTrACS Data: File Access

top of page HURSAT Data: File Access

Image of storm

top of page Plots:

Map of storm track will not appear if FTP is down
Time series of cyclone Maximum Sustained Wind will not appear if FTP is down
Time series of cyclone Minimum Central Pressure will not appear if FTP is down

top of page Track Data:Position

hurdat_epa jtwc_ep cphc td9636 atcf
Date Lat Lon Lat Lon Lat Lon Lat Lon Lat Lon
1982-07-07 00:00:00 9.2 -98.0 9.2 -98.0 9.2 -98.0 9.2 -98.0
1982-07-07 06:00:00 9.5 -98.8 9.5 -98.8 9.5 -98.8 9.5 -98.8
1982-07-07 12:00:00 9.8 -99.7 9.8 -99.7 9.8 -99.7 9.8 -99.7
1982-07-07 18:00:00 10.1 -100.8 10.1 -100.8 10.1 -100.7 10.1 -100.8
1982-07-08 00:00:00 10.3 -101.7 10.3 -101.7 10.3 -101.7 10.3 -101.7
1982-07-08 06:00:00 10.5 -102.5 10.5 -102.5 10.5 -102.5 10.5 -102.5
1982-07-08 12:00:00 10.7 -103.4 10.7 -103.4 10.7 -103.4 10.7 -103.4
1982-07-08 18:00:00 10.9 -104.5 10.9 -104.5 10.9 -104.5 10.9 -104.5
1982-07-09 00:00:00 11.1 -105.8 11.1 -105.8 11.1 -105.8 11.1 -105.8
1982-07-09 06:00:00 11.4 -107.0 11.4 -107.0 11.4 -107.0 11.4 -107.0
1982-07-09 12:00:00 12.0 -108.2 12.0 -108.2 12.0 -108.2 12.0 -108.2
1982-07-09 18:00:00 12.8 -109.3 12.8 -109.3 12.8 -109.3 12.8 -109.3
1982-07-10 00:00:00 13.3 -110.4 13.3 -110.4 13.3 -110.4 13.3 -110.4
1982-07-10 06:00:00 13.5 -111.4 13.5 -111.4 13.5 -111.5 13.5 -111.4
1982-07-10 12:00:00 13.6 -112.5 13.6 -112.5 13.6 -112.5 13.6 -112.5
1982-07-10 18:00:00 13.8 -113.3 13.8 -113.3 13.7 -113.2 13.8 -113.3
1982-07-11 00:00:00 13.9 -113.8 13.9 -113.8 13.9 -113.8 13.9 -113.8
1982-07-11 06:00:00 14.3 -114.3 14.3 -114.3 14.3 -114.3 14.3 -114.3
1982-07-11 12:00:00 14.7 -114.9 14.7 -114.9 14.7 -114.9 14.7 -114.9
1982-07-11 18:00:00 15.1 -115.8 15.1 -115.8 15.1 -115.8 15.1 -115.8
1982-07-12 00:00:00 15.5 -116.8 15.5 -116.8 15.5 -116.8 15.5 -116.8
1982-07-12 06:00:00 15.7 -117.8 15.7 -117.8 15.8 -117.8 15.7 -117.8
1982-07-12 12:00:00 16.0 -118.9 16.0 -118.9 16.0 -118.9 16.0 -118.9
1982-07-12 18:00:00 16.4 -120.2 16.4 -120.2 16.4 -120.2 16.4 -120.2
1982-07-13 00:00:00 16.8 -121.6 16.8 -121.6 16.8 -121.6 16.8 -121.6
hurdat_epa jtwc_ep cphc td9636 atcf
1982-07-13 06:00:00 17.0 -122.8 17.0 -122.8 17.0 -122.9 17.0 -122.8
1982-07-13 12:00:00 17.2 -124.2 17.2 -124.2 17.2 -124.2 17.2 -124.2
1982-07-13 18:00:00 17.3 -125.5 17.3 -125.5 17.3 -125.4 17.3 -125.5
1982-07-14 00:00:00 17.4 -126.7 17.4 -126.7 17.4 -126.7 17.4 -126.7
1982-07-14 06:00:00 17.5 -128.0 17.5 -128.0 17.6 -128.0 17.5 -128.0
1982-07-14 12:00:00 17.8 -129.4 17.8 -129.4 17.8 -129.4 17.8 -129.4
1982-07-14 18:00:00 18.0 -130.7 18.0 -130.7 18.0 -130.7 18.0 -130.7
1982-07-15 00:00:00 18.2 -132.0 18.2 -132.0 18.2 -132.0 18.2 -132.0
1982-07-15 06:00:00 18.2 -133.4 18.2 -133.4 18.2 -133.4 18.2 -133.4
1982-07-15 12:00:00 18.1 -134.8 18.1 -134.8 18.1 -134.8 18.1 -134.8
1982-07-15 18:00:00 18.1 -136.0 18.1 -136.0 18.1 -136.1 18.1 -136.0
1982-07-16 00:00:00 18.1 -137.4 18.1 -137.4 18.1 -137.4 18.1 -137.4
1982-07-16 06:00:00 18.1 -138.8 18.1 -138.8 18.1 -138.7 18.1 -138.8
1982-07-16 12:00:00 18.1 -140.0 18.1 -140.0 18.1 -140.0 18.1 -140.0
1982-07-16 18:00:00 17.8 -141.6 17.8 -141.6 17.8 -141.6 17.8 -141.5 17.8 -141.6
1982-07-17 00:00:00 17.5 -143.1 17.5 -143.1 17.5 -143.1 17.5 -143.1 17.5 -143.1
1982-07-17 06:00:00 17.3 -145.1 17.3 -145.1 17.3 -144.7 17.3 -144.8 17.3 -145.1
1982-07-17 12:00:00 17.2 -146.5 17.2 -146.5 17.2 -146.4 17.2 -146.5 17.2 -146.5
1982-07-17 18:00:00 17.0 -147.8 17.0 -147.8 17.0 -147.8 17.0 -147.9 17.0 -147.8
1982-07-18 00:00:00 16.7 -149.2 16.7 -149.2 16.7 -149.2 16.7 -149.2 16.7 -149.2
1982-07-18 06:00:00 16.5 -150.4 16.5 -150.4 16.5 -150.4 16.4 -150.6 16.5 -150.4
1982-07-18 12:00:00 16.0 -152.0 16.0 -152.0 16.0 -151.8 16.0 -152.0 16.0 -152.0
1982-07-18 18:00:00 15.6 -153.1 15.6 -153.1 15.6 -153.1 15.6 -153.1 15.6 -153.1
1982-07-19 00:00:00 15.2 -154.2 15.2 -154.2 15.2 -154.2 15.2 -154.2 15.2 -154.2
hurdat_epa jtwc_ep cphc td9636 atcf
1982-07-19 06:00:00 14.8 -155.4 14.8 -155.4 14.8 -155.4 14.8 -155.4 14.8 -155.4
1982-07-19 12:00:00 14.5 -156.5 14.5 -156.5 14.5 -156.5 14.5 -156.5 14.5 -156.5
1982-07-19 18:00:00 14.6 -157.5 14.6 -157.5 14.6 -157.1 14.5 -157.3 14.6 -157.5
1982-07-20 00:00:00 14.7 -157.7 14.7 -157.7 14.7 -157.5 14.7 -157.7 14.7 -157.7
1982-07-20 06:00:00 14.7 -157.7 14.7 -157.7 14.7 -157.7 14.7 -157.8 14.7 -157.7
1982-07-20 12:00:00 14.7 -157.7 14.7 -157.7 14.8 -157.7 14.7 -157.7 14.7 -157.7
1982-07-20 18:00:00 15.0 -157.8 15.0 -157.8 15.0 -157.8 14.9 -157.7 15.0 -157.8
1982-07-21 00:00:00 15.3 -157.7 15.3 -157.7 15.3 -157.7 15.3 -157.7 15.3 -157.7
1982-07-21 06:00:00 15.8 -157.5 15.8 -157.5 15.8 -157.5 15.7 -157.5 15.8 -157.5
1982-07-21 12:00:00 16.2 -157.3 16.2 -157.3 16.2 -157.3 16.2 -157.3 16.2 -157.3
1982-07-21 18:00:00 16.7 -157.1 16.7 -157.1 16.8 -157.1 16.8 -157.0 16.7 -157.1
1982-07-22 00:00:00 17.6 -156.7 17.6 -156.7 17.6 -156.7 17.6 -156.7 17.6 -156.7
1982-07-22 06:00:00 18.3 -156.5 18.3 -156.5 18.4 -156.5 18.4 -156.4 18.3 -156.5
1982-07-22 12:00:00 19.3 -156.2 19.3 -156.2 19.3 -156.2 19.3 -156.2 19.3 -156.2
1982-07-22 18:00:00 20.4 -156.0 20.4 -156.0 20.4 -156.0 20.4 -156.0 20.4 -156.0

top of pageTrack Data:Intensity

hurdat_epa jtwc_ep cphc td9636 atcf
Date Wind Pres Wind Pres Wind Pres Wind Pres Wind Pres
1982-07-07 00:00:00 25. 25. 25. 25.
1982-07-07 06:00:00 25. 25. 25. 25.
1982-07-07 12:00:00 30. 30. 30. 30.
1982-07-07 18:00:00 35. 35. 30. 35.
1982-07-08 00:00:00 40. 40. 40. 40.
1982-07-08 06:00:00 45. 45. 40. 45.
1982-07-08 12:00:00 45. 45. 45. 45.
1982-07-08 18:00:00 50. 50. 45. 50.
1982-07-09 00:00:00 50. 50. 50. 50.
1982-07-09 06:00:00 55. 55. 50. 55.
1982-07-09 12:00:00 60. 60. 60. 60.
1982-07-09 18:00:00 65. 65. 65. 65.
1982-07-10 00:00:00 70. 70. 70. 70.
1982-07-10 06:00:00 75. 75. 70. 75.
1982-07-10 12:00:00 85. 85. 85. 85.
1982-07-10 18:00:00 90. 90. 85. 90.
1982-07-11 00:00:00 95. 95. 95. 95.
1982-07-11 06:00:00 100. 100. 95. 100.
1982-07-11 12:00:00 100. 100. 100. 100.
1982-07-11 18:00:00 100. 100. 100. 100.
1982-07-12 00:00:00 100. 100. 100. 100.
1982-07-12 06:00:00 90. 90. 100. 90.
1982-07-12 12:00:00 90. 90. 90. 90.
1982-07-12 18:00:00 90. 90. 90. 90.
1982-07-13 00:00:00 90. 90. 90. 90.
hurdat_epa jtwc_ep cphc td9636 atcf
1982-07-13 06:00:00 85. 85. 90. 85.
1982-07-13 12:00:00 80. 80. 80. 80.
1982-07-13 18:00:00 75. 75. 80. 75.
1982-07-14 00:00:00 70. 70. 70. 70.
1982-07-14 06:00:00 65. 65. 70. 65.
1982-07-14 12:00:00 65. 65. 65. 65.
1982-07-14 18:00:00 65. 65. 65. 65.
1982-07-15 00:00:00 65. 65. 65. 65.
1982-07-15 06:00:00 60. 60. 65. 60.
1982-07-15 12:00:00 55. 55. 55. 55.
1982-07-15 18:00:00 50. 50. 55. 50.
1982-07-16 00:00:00 45. 45. 45. 45.
1982-07-16 06:00:00 40. 40. 45. 40.
1982-07-16 12:00:00 35. 35. 35. 35.
1982-07-16 18:00:00 35. 35. 35. 35. 35.
1982-07-17 00:00:00 35. 35. 35. 35. 35.
1982-07-17 06:00:00 35. 35. 35. 35. 35.
1982-07-17 12:00:00 35. 35. 35. 35. 35.
1982-07-17 18:00:00 40. 40. 40. 35. 40.
1982-07-18 00:00:00 35. 35. 35. 35. 35.
1982-07-18 06:00:00 35. 35. 35. 35. 35.
1982-07-18 12:00:00 35. 35. 35. 35. 35.
1982-07-18 18:00:00 35. 35. 35. 35. 35.
1982-07-19 00:00:00 35. 35. 35. 35. 35.
hurdat_epa jtwc_ep cphc td9636 atcf
1982-07-19 06:00:00 35. 35. 35. 35. 35.
1982-07-19 12:00:00 35. 35. 35. 103. 35.
1982-07-19 18:00:00 30. 30. 30. 103. 30.
1982-07-20 00:00:00 30. 30. 30. 30. 30.
1982-07-20 06:00:00 30. 30. 30. 30. 30.
1982-07-20 12:00:00 30. 30. 30. 30. 30.
1982-07-20 18:00:00 30. 30. 30. 30. 30.
1982-07-21 00:00:00 30. 30. 30. 30. 30.
1982-07-21 06:00:00 25. 25. 25. 30. 25.
1982-07-21 12:00:00 25. 25. 25. 25. 25.
1982-07-21 18:00:00 25. 25. 25. 25. 25.
1982-07-22 00:00:00 25. 25. 25. 25. 25.
1982-07-22 06:00:00 25. 25. 25. 25. 25.
1982-07-22 12:00:00 25. 25. 25. 25. 25.
1982-07-22 18:00:00 25. 25. 25. 25. 25.

top of page Links to source data

Source Source file Format
hurdat_epa tracks1949to2011_epa.html:393:DANIEL HURDAT
jtwc_ep bep081982.txt ATCF
cphc CPHC_Rebest_1966-2003.csv:Line=1759:DANIEL CPHC CSV (from Excel file)
td9636 cons_worldwide_trop_cyclone_18710101-19891231-002:Line=4506 TD 9636
atcf bep041982.dat ATCF